createdAt,value
2018-09-06T00:01:01.097Z,17.70
2018-09-06T00:03:05.177Z,17.70
2018-09-06T00:05:08.741Z,17.70
2018-09-06T00:07:11.928Z,17.60
2018-09-06T00:09:15.134Z,17.60
2018-09-06T00:11:18.918Z,17.60
2018-09-06T00:13:22.117Z,17.70
2018-09-06T00:15:25.535Z,17.70
2018-09-06T00:17:29.416Z,17.60
2018-09-06T00:19:32.619Z,17.60
2018-09-06T00:21:35.881Z,17.60
2018-09-06T00:23:39.477Z,17.60
2018-09-06T00:25:42.743Z,17.60
2018-09-06T00:27:46.305Z,17.50
2018-09-06T00:29:49.506Z,17.40
2018-09-06T00:31:52.713Z,17.50
2018-09-06T00:33:55.921Z,17.50
2018-09-06T00:35:59.115Z,17.50
2018-09-06T00:38:02.941Z,17.50
2018-09-06T00:40:06.613Z,17.50
2018-09-06T00:42:10.330Z,17.40
2018-09-06T00:44:13.858Z,17.50
2018-09-06T00:46:17.693Z,17.50
2018-09-06T00:48:21.216Z,17.50
2018-09-06T00:50:24.420Z,17.50
2018-09-06T00:52:27.640Z,17.60
2018-09-06T00:54:31.492Z,17.50
2018-09-06T00:56:35.055Z,17.60
2018-09-06T00:58:38.249Z,17.50
2018-09-06T01:00:42.072Z,17.60
2018-09-06T01:02:45.423Z,17.60
2018-09-06T01:04:48.596Z,17.60
2018-09-06T01:06:51.984Z,17.60
2018-09-06T01:08:55.140Z,17.50
2018-09-06T01:10:58.341Z,17.50
2018-09-06T01:13:02.323Z,17.40
2018-09-06T01:15:05.499Z,17.40
2018-09-06T01:17:08.676Z,17.30
2018-09-06T01:19:12.236Z,17.20
2018-09-06T01:21:15.409Z,17.20
2018-09-06T01:23:18.583Z,17.10
2018-09-06T01:25:22.575Z,17.10
2018-09-06T01:27:26.095Z,17.20
2018-09-06T01:29:29.272Z,17.20
2018-09-06T01:31:32.656Z,17.10
2018-09-06T01:33:35.896Z,17.10
2018-09-06T01:35:43.695Z,17.10
2018-09-06T01:37:47.129Z,17.00
2018-09-06T01:39:50.788Z,17.00
2018-09-06T01:41:53.952Z,17.10
2018-09-06T01:43:57.148Z,17.00
2018-09-06T01:46:00.360Z,17.00
2018-09-06T01:48:03.881Z,16.90
2018-09-06T01:50:07.771Z,16.80
2018-09-06T01:52:11.493Z,16.80
2018-09-06T01:54:14.679Z,16.70
2018-09-06T01:56:18.367Z,16.70
2018-09-06T01:58:21.561Z,16.80
2018-09-06T02:00:24.744Z,16.80
2018-09-06T02:02:27.925Z,16.70
2018-09-06T02:04:31.134Z,16.70
2018-09-06T02:06:34.299Z,16.70
2018-09-06T02:08:37.743Z,16.70
2018-09-06T02:10:40.941Z,16.70
2018-09-06T02:12:44.135Z,16.70
2018-09-06T02:14:47.592Z,16.70
2018-09-06T02:16:50.834Z,16.70
2018-09-06T02:18:54.016Z,16.70
2018-09-06T02:20:57.532Z,16.70
2018-09-06T02:23:00.746Z,16.60
2018-09-06T02:25:04.149Z,16.60
2018-09-06T02:27:07.943Z,16.60
2018-09-06T02:29:11.356Z,16.60
2018-09-06T02:31:14.567Z,16.50
2018-09-06T02:33:18.156Z,16.60
2018-09-06T02:35:21.939Z,16.60
2018-09-06T02:37:25.129Z,16.60
2018-09-06T02:39:28.340Z,16.50
2018-09-06T02:41:31.537Z,16.50
2018-09-06T02:43:34.751Z,16.50
2018-09-06T02:45:38.365Z,16.50
2018-09-06T02:47:47.036Z,16.40
2018-09-06T02:49:55.500Z,16.40
2018-09-06T02:51:58.757Z,16.40
2018-09-06T02:54:02.044Z,16.40
2018-09-06T02:56:05.724Z,16.30
2018-09-06T02:58:08.919Z,16.30
2018-09-06T03:00:12.186Z,16.40
2018-09-06T03:02:15.376Z,16.40
2018-09-06T03:04:18.628Z,16.30
2018-09-06T03:06:21.836Z,16.30
2018-09-06T03:08:25.049Z,16.30
2018-09-06T03:10:34.016Z,16.20
2018-09-06T03:12:37.201Z,16.10
2018-09-06T03:14:40.758Z,16.10
2018-09-06T03:16:44.044Z,16.10
2018-09-06T03:18:47.535Z,16.10
2018-09-06T03:20:51.189Z,16.10
2018-09-06T03:22:54.369Z,16.10
2018-09-06T03:24:57.618Z,16.10
2018-09-06T03:27:00.888Z,16.10
2018-09-06T03:29:04.087Z,16.10
2018-09-06T03:31:07.588Z,16.10
2018-09-06T03:33:11.440Z,16.10
2018-09-06T03:35:14.624Z,16.00
2018-09-06T03:37:17.840Z,16.00
2018-09-06T03:39:21.040Z,16.00
2018-09-06T03:41:24.220Z,16.00
2018-09-06T03:43:27.401Z,16.00
2018-09-06T03:45:30.949Z,16.00
2018-09-06T03:47:34.172Z,15.90
2018-09-06T03:49:37.812Z,15.90
2018-09-06T03:51:41.004Z,15.90
2018-09-06T03:53:44.319Z,15.90
2018-09-06T03:55:47.707Z,15.90
2018-09-06T03:57:50.888Z,15.80
2018-09-06T03:59:54.192Z,15.80
2018-09-06T04:01:57.736Z,15.80
2018-09-06T04:04:01.245Z,15.80
2018-09-06T04:06:04.778Z,15.80
2018-09-06T04:08:07.985Z,15.70
2018-09-06T04:10:11.562Z,15.70
2018-09-06T04:12:14.735Z,15.70
2018-09-06T04:14:17.945Z,15.80
2018-09-06T04:16:21.124Z,15.80
2018-09-06T04:18:24.613Z,15.70
2018-09-06T04:20:27.956Z,15.80
2018-09-06T04:22:31.508Z,15.80
2018-09-06T04:24:35.662Z,15.70
2018-09-06T04:26:39.524Z,15.80
2018-09-06T04:28:42.799Z,15.80
2018-09-06T04:30:46.328Z,15.70
2018-09-06T04:32:49.520Z,15.70
2018-09-06T04:34:52.720Z,15.70
2018-09-06T04:36:55.935Z,15.70
2018-09-06T04:38:59.124Z,15.60
2018-09-06T04:41:02.348Z,15.70
2018-09-06T04:43:05.792Z,15.60
2018-09-06T04:45:08.996Z,15.60
2018-09-06T04:47:12.187Z,15.60
2018-09-06T04:49:15.956Z,15.60
2018-09-06T04:51:19.140Z,15.70
2018-09-06T04:53:22.345Z,15.70
2018-09-06T04:55:25.536Z,15.70
2018-09-06T04:57:28.990Z,15.70
2018-09-06T04:59:32.232Z,15.70
2018-09-06T05:01:35.411Z,15.80
2018-09-06T05:03:38.803Z,15.80
2018-09-06T05:05:42.012Z,15.80
2018-09-06T05:07:45.456Z,15.90
2018-09-06T05:09:48.686Z,15.90
2018-09-06T05:11:51.880Z,15.80
2018-09-06T05:13:55.520Z,15.80
2018-09-06T05:15:58.709Z,15.80
2018-09-06T05:18:01.926Z,15.80
2018-09-06T05:20:05.705Z,15.90
2018-09-06T05:22:08.934Z,15.90
2018-09-06T05:24:12.263Z,15.90
2018-09-06T05:26:15.776Z,16.00
2018-09-06T05:28:19.033Z,16.10
2018-09-06T05:30:22.221Z,16.00
2018-09-06T05:32:26.260Z,16.00
2018-09-06T05:34:29.435Z,16.10
2018-09-06T05:36:32.701Z,16.10
2018-09-06T05:38:36.699Z,16.10
2018-09-06T05:40:40.092Z,16.20
2018-09-06T05:42:43.293Z,16.20
2018-09-06T05:44:46.825Z,16.10
2018-09-06T05:46:50.093Z,16.10
2018-09-06T05:48:53.720Z,16.10
2018-09-06T05:50:56.955Z,16.20
2018-09-06T05:53:01.514Z,16.10
2018-09-06T05:55:05.089Z,16.10
2018-09-06T05:57:08.266Z,16.10
2018-09-06T05:59:11.475Z,16.00
2018-09-06T06:01:14.674Z,16.10
2018-09-06T06:03:18.708Z,16.20
2018-09-06T06:05:21.911Z,16.20
2018-09-06T06:07:35.668Z,16.20
2018-09-06T06:09:38.876Z,16.20
2018-09-06T06:11:42.093Z,16.20
2018-09-06T06:13:45.812Z,16.20
2018-09-06T06:15:49.297Z,16.30
2018-09-06T06:17:52.674Z,16.30
2018-09-06T06:19:55.894Z,16.40
2018-09-06T06:21:59.638Z,16.50
2018-09-06T06:24:03.167Z,16.40
2018-09-06T06:26:07.272Z,16.50
2018-09-06T06:28:10.960Z,16.50
2018-09-06T06:30:14.227Z,16.60
2018-09-06T06:32:17.472Z,16.60
2018-09-06T06:34:20.937Z,16.50
2018-09-06T06:36:24.456Z,16.60
2018-09-06T06:38:27.964Z,16.70
2018-09-06T06:40:31.832Z,16.80
2018-09-06T06:42:35.032Z,16.80
2018-09-06T06:44:38.221Z,16.90
2018-09-06T06:46:41.903Z,16.90
2018-09-06T06:48:45.127Z,16.90
2018-09-06T06:50:48.623Z,16.90
2018-09-06T06:52:52.177Z,16.90
2018-09-06T06:54:55.369Z,16.90
2018-09-06T06:56:58.586Z,17.00
2018-09-06T06:59:02.770Z,17.00
2018-09-06T07:01:06.006Z,17.10
2018-09-06T07:03:11.648Z,17.20
2018-09-06T07:05:14.852Z,17.30
2018-09-06T07:07:18.028Z,17.40
2018-09-06T07:09:21.196Z,17.50
2018-09-06T07:11:24.391Z,17.50
2018-09-06T07:13:27.588Z,17.60
2018-09-06T07:15:30.797Z,17.70
2018-09-06T07:17:34.022Z,17.70
2018-09-06T07:19:37.216Z,17.70
2018-09-06T07:21:40.416Z,17.80
2018-09-06T07:23:43.629Z,17.90
2018-09-06T07:25:46.815Z,17.80
2018-09-06T07:27:50.024Z,17.80
2018-09-06T07:29:53.554Z,17.90
2018-09-06T07:31:56.934Z,17.90
2018-09-06T07:34:00.108Z,17.90
2018-09-06T07:36:04.012Z,17.90
2018-09-06T07:38:07.560Z,17.90
2018-09-06T07:40:11.107Z,18.00
2018-09-06T07:42:14.716Z,18.10
2018-09-06T07:44:18.229Z,18.20
2018-09-06T07:46:21.767Z,18.20
2018-09-06T07:48:24.976Z,18.20
2018-09-06T07:50:28.500Z,18.20
2018-09-06T07:52:32.220Z,18.20
2018-09-06T07:54:35.609Z,18.30
2018-09-06T07:56:39.089Z,18.30
2018-09-06T07:58:42.276Z,18.30
2018-09-06T08:00:45.492Z,18.30
2018-09-06T08:02:49.385Z,18.30
2018-09-06T08:04:52.552Z,18.20
2018-09-06T08:06:55.708Z,18.20
2018-09-06T08:08:59.030Z,18.30
2018-09-06T08:11:02.253Z,18.30
2018-09-06T08:13:05.539Z,18.40
2018-09-06T08:15:09.187Z,18.50
2018-09-06T08:17:12.328Z,18.50
2018-09-06T08:19:15.520Z,18.50
2018-09-06T08:21:18.742Z,18.50
2018-09-06T08:23:22.654Z,18.50
2018-09-06T08:25:26.184Z,18.60
2018-09-06T08:27:29.405Z,18.60
2018-09-06T08:29:32.584Z,18.70
2018-09-06T08:31:36.652Z,18.70
2018-09-06T08:33:39.886Z,18.80
2018-09-06T08:35:43.107Z,18.90
2018-09-06T08:37:46.311Z,19.00
2018-09-06T08:39:49.496Z,19.00
2018-09-06T08:41:52.712Z,19.00
2018-09-06T08:43:55.928Z,19.00
2018-09-06T08:45:59.113Z,19.10
2018-09-06T08:48:02.992Z,19.10
2018-09-06T08:50:06.775Z,19.20
2018-09-06T08:52:10.091Z,19.30
2018-09-06T08:54:13.352Z,19.40
2018-09-06T08:56:16.564Z,19.60
2018-09-06T08:58:19.887Z,19.60
2018-09-06T09:00:23.288Z,19.60
2018-09-06T09:02:26.817Z,19.60
2018-09-06T09:04:30.496Z,19.60
2018-09-06T09:06:34.012Z,19.70
2018-09-06T09:08:37.719Z,19.80
2018-09-06T09:10:40.893Z,19.80
2018-09-06T09:12:44.072Z,20.00
2018-09-06T09:14:47.592Z,19.90
2018-09-06T09:16:51.184Z,19.90
2018-09-06T09:18:54.393Z,20.10
2018-09-06T09:20:58.172Z,20.10
2018-09-06T09:23:01.361Z,20.20
2018-09-06T09:25:05.330Z,20.20
2018-09-06T09:27:08.658Z,20.40
2018-09-06T09:29:11.869Z,20.50
2018-09-06T09:31:15.086Z,20.50
2018-09-06T09:33:18.324Z,20.50
2018-09-06T09:35:21.525Z,20.50
2018-09-06T09:37:25.068Z,20.70
2018-09-06T09:39:28.916Z,20.80
2018-09-06T09:41:32.469Z,20.90
2018-09-06T09:43:36.344Z,20.80
2018-09-06T09:45:39.856Z,20.90
2018-09-06T09:47:43.369Z,20.90
2018-09-06T09:49:46.569Z,21.00
2018-09-06T09:51:49.980Z,21.10
2018-09-06T09:53:53.206Z,21.10
2018-09-06T09:55:56.622Z,21.20
2018-09-06T09:58:00.060Z,21.20
2018-09-06T10:00:03.281Z,21.20
2018-09-06T10:02:11.960Z,21.20
2018-09-06T10:04:21.397Z,21.40
2018-09-06T10:06:30.105Z,21.40
2018-09-06T10:08:39.016Z,21.40
2018-09-06T10:10:42.412Z,21.40
2018-09-06T10:12:46.465Z,21.50
2018-09-06T10:14:49.652Z,21.70
2018-09-06T10:16:53.199Z,21.80
2018-09-06T10:18:56.680Z,21.80
2018-09-06T10:21:00.310Z,21.90
2018-09-06T10:23:03.812Z,21.80
2018-09-06T10:25:07.439Z,21.90
2018-09-06T10:27:10.988Z,22.00
2018-09-06T10:29:14.512Z,22.10
2018-09-06T10:31:18.317Z,22.10
2018-09-06T10:33:21.815Z,22.20
2018-09-06T10:35:25.758Z,22.20
2018-09-06T10:37:29.476Z,22.20
2018-09-06T10:39:32.657Z,22.30
2018-09-06T10:41:36.321Z,22.30
2018-09-06T10:43:40.192Z,22.40
2018-09-06T10:45:43.380Z,22.40
2018-09-06T10:47:46.949Z,22.50
2018-09-06T10:49:50.149Z,22.60
2018-09-06T10:51:53.680Z,22.50
2018-09-06T10:53:56.857Z,22.50
2018-09-06T10:56:00.068Z,22.50
2018-09-06T10:58:03.499Z,22.60
2018-09-06T11:00:06.698Z,22.90
2018-09-06T11:02:10.829Z,23.00
2018-09-06T11:04:14.904Z,23.00
2018-09-06T11:06:18.196Z,23.00
2018-09-06T11:08:21.487Z,23.10
2018-09-06T11:10:24.816Z,23.10
2018-09-06T11:12:28.344Z,23.00
2018-09-06T11:14:31.896Z,23.10
2018-09-06T11:16:35.416Z,23.20
2018-09-06T11:18:39.032Z,23.20
2018-09-06T11:20:42.433Z,23.20
2018-09-06T11:22:46.060Z,23.20
2018-09-06T11:24:49.827Z,23.30
2018-09-06T11:26:53.220Z,23.40
2018-09-06T11:28:56.436Z,23.70
2018-09-06T11:30:59.796Z,23.90
2018-09-06T11:33:03.359Z,24.40
2018-09-06T11:35:06.547Z,25.00
2018-09-06T11:37:10.120Z,25.50
2018-09-06T11:39:13.299Z,25.70
2018-09-06T11:41:16.477Z,25.60
2018-09-06T11:43:19.748Z,25.30
2018-09-06T11:45:23.192Z,25.70
2018-09-06T11:47:26.486Z,26.50
2018-09-06T11:49:29.745Z,27.30
2018-09-06T11:51:33.291Z,28.00
2018-09-06T11:53:37.005Z,28.10
2018-09-06T11:55:41.060Z,28.20
2018-09-06T11:57:44.820Z,28.20
2018-09-06T11:59:48.904Z,27.50
2018-09-06T12:01:52.644Z,27.60
2018-09-06T12:03:57.059Z,27.80
2018-09-06T12:06:00.567Z,28.30
2018-09-06T12:08:04.809Z,28.20
2018-09-06T12:10:08.416Z,28.30
2018-09-06T12:12:12.182Z,28.20
2018-09-06T12:14:15.882Z,27.70
2018-09-06T12:16:19.944Z,27.90
2018-09-06T12:18:23.680Z,28.10
2018-09-06T12:20:27.461Z,28.30
2018-09-06T12:22:31.424Z,28.00
2018-09-06T12:24:35.140Z,27.40
2018-09-06T12:26:39.556Z,26.90
2018-09-06T12:28:43.640Z,27.30
2018-09-06T12:30:47.704Z,27.70
2018-09-06T12:32:51.592Z,28.40
2018-09-06T12:34:55.309Z,29.00
2018-09-06T12:36:58.560Z,29.40
2018-09-06T12:39:02.135Z,29.80
2018-09-06T12:41:05.636Z,29.70
2018-09-06T12:43:09.132Z,29.90
2018-09-06T12:45:12.492Z,29.70
2018-09-06T12:47:16.039Z,29.90
2018-09-06T12:49:19.212Z,29.50
2018-09-06T12:51:22.733Z,29.30
2018-09-06T12:53:25.988Z,29.10
2018-09-06T12:55:29.976Z,28.80
2018-09-06T12:57:33.580Z,28.80
2018-09-06T12:59:36.836Z,28.80
2018-09-06T13:01:40.908Z,28.70
2018-09-06T13:03:44.651Z,28.60
2018-09-06T13:05:47.840Z,29.00
2018-09-06T13:07:51.615Z,29.40
2018-09-06T13:09:54.822Z,29.80
2018-09-06T13:11:58.221Z,29.80
2018-09-06T13:14:01.860Z,29.20
2018-09-06T13:16:05.956Z,28.20
2018-09-06T13:18:09.768Z,27.50
2018-09-06T13:20:13.284Z,27.30
2018-09-06T13:22:16.752Z,27.70
2018-09-06T13:24:19.917Z,27.70
2018-09-06T13:26:23.833Z,27.80
2018-09-06T13:28:27.529Z,27.90
2018-09-06T13:30:30.704Z,27.70
2018-09-06T13:32:33.886Z,27.40
2018-09-06T13:34:37.416Z,27.10
2018-09-06T13:36:40.596Z,27.10
2018-09-06T13:38:43.816Z,27.40
2018-09-06T13:40:46.996Z,27.40
2018-09-06T13:42:50.423Z,27.80
2018-09-06T13:44:53.616Z,28.30
2018-09-06T13:46:57.447Z,28.70
2018-09-06T13:49:01.185Z,28.70
2018-09-06T13:51:04.972Z,28.50
2018-09-06T13:53:08.140Z,28.20
2018-09-06T13:55:11.696Z,28.50
2018-09-06T13:57:15.046Z,28.40
2018-09-06T13:59:18.853Z,28.70
2018-09-06T14:01:22.080Z,28.80
2018-09-06T14:03:25.275Z,28.40
2018-09-06T14:05:28.444Z,28.00
2018-09-06T14:07:31.639Z,27.70
2018-09-06T14:09:34.837Z,27.60
2018-09-06T14:11:38.032Z,27.80
2018-09-06T14:13:41.680Z,27.90
2018-09-06T14:15:44.888Z,27.90
2018-09-06T14:17:48.066Z,27.90
2018-09-06T14:19:51.448Z,28.10
2018-09-06T14:21:54.619Z,28.10
2018-09-06T14:23:57.853Z,27.90
2018-09-06T14:26:01.196Z,27.80
2018-09-06T14:28:04.401Z,27.70
2018-09-06T14:30:08.300Z,27.70
2018-09-06T14:32:11.526Z,27.70
2018-09-06T14:34:14.856Z,27.60
2018-09-06T14:36:18.113Z,27.40
2018-09-06T14:38:21.462Z,27.50
2018-09-06T14:40:24.828Z,27.70
2018-09-06T14:42:28.034Z,27.80
2018-09-06T14:44:31.368Z,27.80
2018-09-06T14:46:34.670Z,27.70
2018-09-06T14:48:37.848Z,27.80
2018-09-06T14:50:41.029Z,27.60
2018-09-06T14:52:44.876Z,27.40
2018-09-06T14:54:48.104Z,27.20
2018-09-06T14:56:52.147Z,27.20
2018-09-06T14:58:55.331Z,27.00
2018-09-06T15:00:58.688Z,26.90
2018-09-06T15:03:02.053Z,26.90
2018-09-06T15:05:05.548Z,27.00
2018-09-06T15:07:09.069Z,26.90
2018-09-06T15:09:12.476Z,26.90
2018-09-06T15:11:15.768Z,27.00
2018-09-06T15:13:18.988Z,27.00
2018-09-06T15:15:22.931Z,26.90
2018-09-06T15:17:26.316Z,27.00
2018-09-06T15:19:29.540Z,27.20
2018-09-06T15:21:32.712Z,27.40
2018-09-06T15:23:35.896Z,27.50
2018-09-06T15:25:39.557Z,27.60
2018-09-06T15:27:43.021Z,27.80
2018-09-06T15:29:46.451Z,28.00
2018-09-06T15:31:49.705Z,28.00
2018-09-06T15:33:53.259Z,27.80
2018-09-06T15:35:56.462Z,27.60
2018-09-06T15:37:59.961Z,27.50
2018-09-06T15:40:03.337Z,27.20
2018-09-06T15:42:06.852Z,27.20
2018-09-06T15:44:10.334Z,27.20
2018-09-06T15:46:14.073Z,27.50
2018-09-06T15:48:17.289Z,27.80
2018-09-06T15:50:20.804Z,27.90
2018-09-06T15:52:24.016Z,27.90
2018-09-06T15:54:27.190Z,28.20
2018-09-06T15:56:30.478Z,28.60
2018-09-06T15:58:33.695Z,28.80
2018-09-06T16:00:36.865Z,28.90
2018-09-06T16:02:40.084Z,29.10
2018-09-06T16:04:43.736Z,29.30
2018-09-06T16:06:46.960Z,29.30
2018-09-06T16:08:50.141Z,29.40
2018-09-06T16:10:53.504Z,29.40
2018-09-06T16:12:56.831Z,29.30
2018-09-06T16:14:59.988Z,29.20
2018-09-06T16:17:03.604Z,29.00
2018-09-06T16:19:07.252Z,28.80
2018-09-06T16:21:10.760Z,28.70
2018-09-06T16:23:14.179Z,28.50
2018-09-06T16:25:19.017Z,28.20
2018-09-06T16:27:22.180Z,27.80
2018-09-06T16:29:25.360Z,27.50
2018-09-06T16:31:28.863Z,27.00
2018-09-06T16:33:32.300Z,26.70
2018-09-06T16:35:36.477Z,26.30
2018-09-06T16:37:39.952Z,26.10
2018-09-06T16:39:43.476Z,25.70
2018-09-06T16:41:46.988Z,25.70
2018-09-06T16:43:50.137Z,25.60
2018-09-06T16:45:53.688Z,25.40
2018-09-06T16:47:57.061Z,25.40
2018-09-06T16:50:00.227Z,25.40
2018-09-06T16:52:03.482Z,25.30
2018-09-06T16:54:06.992Z,25.10
2018-09-06T16:56:10.188Z,25.00
2018-09-06T16:58:13.388Z,24.90
2018-09-06T17:00:16.917Z,24.90
2018-09-06T17:02:20.133Z,24.90
2018-09-06T17:04:23.405Z,24.90
2018-09-06T17:06:26.767Z,24.90
2018-09-06T17:08:30.020Z,24.70
2018-09-06T17:10:33.412Z,24.70
2018-09-06T17:12:36.591Z,24.70
2018-09-06T17:14:40.600Z,24.70
2018-09-06T17:16:43.826Z,24.70
2018-09-06T17:18:47.272Z,24.70
2018-09-06T17:20:50.457Z,24.60
2018-09-06T17:22:53.652Z,24.50
2018-09-06T17:24:56.993Z,24.40
2018-09-06T17:27:00.327Z,24.30
2018-09-06T17:29:03.980Z,24.20
2018-09-06T17:31:07.933Z,24.30
2018-09-06T17:33:11.094Z,24.20
2018-09-06T17:35:14.909Z,24.20
2018-09-06T17:37:18.244Z,24.10
2018-09-06T17:39:21.505Z,24.00
2018-09-06T17:41:25.326Z,23.90
2018-09-06T17:43:28.512Z,23.90
2018-09-06T17:45:31.708Z,23.90
2018-09-06T17:47:35.163Z,23.90
2018-09-06T17:49:38.540Z,23.80
2018-09-06T17:51:41.724Z,23.70
2018-09-06T17:53:45.268Z,23.60
2018-09-06T17:55:48.469Z,23.60
2018-09-06T17:57:52.048Z,23.30
2018-09-06T17:59:55.252Z,23.10
2018-09-06T18:01:58.424Z,23.00
2018-09-06T18:04:02.092Z,22.80
2018-09-06T18:06:05.612Z,22.60
2018-09-06T18:08:09.203Z,22.50
2018-09-06T18:10:13.031Z,22.40
2018-09-06T18:12:16.216Z,22.50
2018-09-06T18:14:19.767Z,22.20
2018-09-06T18:16:23.613Z,21.90
2018-09-06T18:18:26.867Z,22.00
2018-09-06T18:20:30.416Z,21.90
2018-09-06T18:22:34.404Z,21.90
2018-09-06T18:24:37.663Z,21.80
2018-09-06T18:26:41.211Z,21.70
2018-09-06T18:28:44.444Z,21.80
2018-09-06T18:30:47.656Z,21.70
2018-09-06T18:32:51.261Z,21.60
2018-09-06T18:34:54.804Z,21.60
2018-09-06T18:36:58.029Z,21.60
2018-09-06T18:39:01.553Z,21.70
2018-09-06T18:41:04.718Z,21.70
2018-09-06T18:43:08.138Z,21.70
2018-09-06T18:45:11.657Z,21.60
2018-09-06T18:47:15.104Z,21.40
2018-09-06T18:49:18.342Z,21.40
2018-09-06T18:51:21.534Z,21.30
2018-09-06T18:53:25.217Z,21.30
2018-09-06T18:55:29.850Z,21.30
2018-09-06T18:57:33.848Z,21.20
2018-09-06T18:59:37.085Z,21.10
2018-09-06T19:01:40.501Z,21.10
2018-09-06T19:03:43.704Z,21.20
2018-09-06T19:05:46.884Z,21.10
2018-09-06T19:07:50.256Z,20.90
2018-09-06T19:09:53.763Z,20.90
2018-09-06T19:11:57.013Z,20.80
2018-09-06T19:14:00.727Z,20.80
2018-09-06T19:16:04.601Z,20.90
2018-09-06T19:18:07.831Z,20.70
2018-09-06T19:20:11.092Z,20.60
2018-09-06T19:22:14.402Z,20.60
2018-09-06T19:24:17.919Z,20.50
2018-09-06T19:26:21.625Z,20.40
2018-09-06T19:28:24.872Z,20.40
2018-09-06T19:30:28.490Z,20.40
2018-09-06T19:32:31.872Z,20.40
2018-09-06T19:34:35.321Z,20.40
2018-09-06T19:36:38.728Z,20.40
2018-09-06T19:38:41.943Z,20.40
2018-09-06T19:40:45.122Z,20.40
2018-09-06T19:42:48.673Z,20.40
2018-09-06T19:44:51.931Z,20.40
2018-09-06T19:46:55.480Z,20.30
2018-09-06T19:48:58.724Z,20.40
2018-09-06T19:51:02.124Z,20.40
2018-09-06T19:53:05.686Z,20.40
2018-09-06T19:55:08.892Z,20.30
2018-09-06T19:57:12.124Z,20.40
2018-09-06T19:59:15.324Z,20.40
2018-09-06T20:01:18.562Z,20.30
2018-09-06T20:03:21.769Z,20.20
2018-09-06T20:05:24.977Z,20.20
2018-09-06T20:07:28.168Z,20.10
2018-09-06T20:09:31.379Z,20.00
2018-09-06T20:11:34.623Z,19.90
2018-09-06T20:13:37.817Z,19.90
2018-09-06T20:15:41.394Z,19.80
2018-09-06T20:17:44.916Z,19.80
2018-09-06T20:19:48.141Z,19.80
2018-09-06T20:21:51.384Z,19.80
2018-09-06T20:23:54.567Z,19.80
2018-09-06T20:25:57.806Z,19.80
2018-09-06T20:28:01.747Z,19.80
2018-09-06T20:30:05.452Z,19.70
2018-09-06T20:32:08.633Z,19.70
2018-09-06T20:34:11.815Z,19.70
2018-09-06T20:36:15.381Z,19.60
2018-09-06T20:38:18.792Z,19.70
2018-09-06T20:40:21.984Z,19.70
2018-09-06T20:42:25.613Z,19.80
2018-09-06T20:44:29.032Z,19.90
2018-09-06T20:46:32.424Z,19.80
2018-09-06T20:48:35.776Z,19.70
2018-09-06T20:50:39.658Z,19.50
2018-09-06T20:52:42.924Z,19.50
2018-09-06T20:54:46.476Z,19.50
2018-09-06T20:56:49.960Z,19.50
2018-09-06T20:58:53.364Z,19.30
2018-09-06T21:00:56.600Z,19.30
2018-09-06T21:02:59.819Z,19.10
2018-09-06T21:05:03.503Z,19.30
2018-09-06T21:07:07.021Z,19.40
2018-09-06T21:09:10.193Z,19.30
2018-09-06T21:11:13.458Z,19.20
2018-09-06T21:13:16.766Z,19.00
2018-09-06T21:15:19.954Z,19.00
2018-09-06T21:17:23.279Z,18.90
2018-09-06T21:19:26.537Z,18.80
2018-09-06T21:21:29.989Z,18.80
2018-09-06T21:23:33.506Z,18.90
2018-09-06T21:25:36.864Z,18.80
2018-09-06T21:27:40.472Z,18.80
2018-09-06T21:29:43.677Z,18.70
2018-09-06T21:31:47.052Z,18.60
2018-09-06T21:33:50.281Z,18.60
2018-09-06T21:35:53.541Z,18.70
2018-09-06T21:37:56.760Z,18.70
2018-09-06T21:40:00.311Z,18.50
2018-09-06T21:42:04.036Z,18.50
2018-09-06T21:44:07.501Z,18.50
2018-09-06T21:46:11.128Z,18.60
2018-09-06T21:48:14.325Z,18.60
2018-09-06T21:50:17.512Z,18.50
2018-09-06T21:52:20.728Z,18.50
2018-09-06T21:54:23.933Z,18.50
2018-09-06T21:56:27.202Z,18.50
2018-09-06T21:58:30.414Z,18.60
2018-09-06T22:00:34.300Z,18.60
2018-09-06T22:02:43.244Z,18.60
2018-09-06T22:04:46.448Z,18.60
2018-09-06T22:06:49.628Z,18.60
2018-09-06T22:08:52.808Z,18.60
2018-09-06T22:10:56.184Z,18.60
2018-09-06T22:12:59.412Z,18.60
2018-09-06T22:15:02.684Z,18.70
2018-09-06T22:17:06.212Z,18.70
2018-09-06T22:19:09.524Z,18.70
2018-09-06T22:21:12.756Z,18.70
2018-09-06T22:23:15.920Z,18.70
2018-09-06T22:25:19.416Z,18.60
2018-09-06T22:27:22.972Z,18.60
2018-09-06T22:29:26.144Z,18.70
2018-09-06T22:31:29.924Z,18.70
2018-09-06T22:33:33.578Z,18.70
2018-09-06T22:35:36.788Z,18.70
2018-09-06T22:37:40.287Z,18.80
2018-09-06T22:39:43.520Z,18.80
2018-09-06T22:41:47.056Z,18.80
2018-09-06T22:43:50.666Z,18.80
2018-09-06T22:45:53.895Z,18.90
2018-09-06T22:47:57.068Z,18.90
2018-09-06T22:50:00.336Z,18.90
2018-09-06T22:52:04.280Z,19.00
2018-09-06T22:54:07.812Z,19.00
2018-09-06T22:56:11.012Z,19.00
2018-09-06T22:58:14.824Z,18.90
2018-09-06T23:00:20.189Z,19.00
2018-09-06T23:02:23.384Z,19.00
2018-09-06T23:04:26.646Z,19.00
2018-09-06T23:06:30.017Z,19.00
2018-09-06T23:08:33.565Z,19.00
2018-09-06T23:10:37.199Z,18.90
2018-09-06T23:12:40.390Z,19.00
2018-09-06T23:14:43.985Z,19.00
2018-09-06T23:16:47.196Z,19.00
2018-09-06T23:18:50.445Z,19.10
2018-09-06T23:20:53.664Z,19.00
2018-09-06T23:22:56.854Z,18.90
2018-09-06T23:25:00.043Z,18.90
2018-09-06T23:27:03.588Z,18.90
2018-09-06T23:29:06.782Z,18.90
2018-09-06T23:31:09.956Z,18.90
2018-09-06T23:33:13.169Z,19.00
2018-09-06T23:35:16.607Z,18.90
2018-09-06T23:37:20.130Z,18.90
2018-09-06T23:39:23.692Z,18.80
2018-09-06T23:41:26.884Z,18.70
2018-09-06T23:43:30.075Z,18.80
2018-09-06T23:45:33.280Z,18.80
2018-09-06T23:47:36.835Z,18.80
2018-09-06T23:49:40.100Z,18.80
2018-09-06T23:51:43.736Z,18.80
2018-09-06T23:53:46.936Z,18.80
2018-09-06T23:55:50.144Z,18.90
2018-09-06T23:57:53.324Z,18.90
2018-09-06T23:59:56.516Z,18.90
